<?xml version="1.0" encoding="UTF-8"?>
<gpx version="1.1" creator="https://www.youtrack.es" xsi:schemaLocation="http://www.topografix.com/GPX/1/1 http://www.topografix.com/GPX/1/1/gpx.xsd http://www.garmin.com/xmlschemas/GpxExtensions/v3 http://www.garmin.com/xmlschemas/GpxExtensionsv3.xsd http://www.garmin.com/xmlschemas/TrackPointExtension/v1 http://www.garmin.com/xmlschemas/TrackPointExtensionv1.xsd" xmlns:gpxtpx="http://www.garmin.com/xmlschemas/TrackPointExtension/v1" xmlns:gpxx="http://www.garmin.com/xmlschemas/GpxExtensions/v3" xmlns:xsi="http://www.w3.org/2001/XMLSchema-instance">
  <metadata>
    <link href="https://www.youtrack.es">
      <text>YouTrack.es</text>
    </link>
    <time>2026-05-08T23:09:06Z</time>
  </metadata>
  <trk>
    <src>https://www.youtrack.es</src>
    <link href="https://www.youtrack.es/ruta/14821-r3-1">
      <text>YouTrack.es</text>
    </link>
    <trkseg>
      <trkpt lat="41.564039" lon="1.237915">
        <ele>565.625</ele>
        <time>2020-08-06T13:35:46Z</time>
      </trkpt>
      <trkpt lat="41.564384" lon="1.238365">
        <ele>576.326</ele>
        <time>2020-08-06T13:36:26Z</time>
      </trkpt>
      <trkpt lat="41.564440" lon="1.238247">
        <ele>575.708</ele>
        <time>2020-08-06T13:37:06Z</time>
      </trkpt>
      <trkpt lat="41.564537" lon="1.237764">
        <ele>573.908</ele>
        <time>2020-08-06T13:37:46Z</time>
      </trkpt>
      <trkpt lat="41.564725" lon="1.237292">
        <ele>576.927</ele>
        <time>2020-08-06T13:38:26Z</time>
      </trkpt>
      <trkpt lat="41.564797" lon="1.236718">
        <ele>578.226</ele>
        <time>2020-08-06T13:39:06Z</time>
      </trkpt>
      <trkpt lat="41.564825" lon="1.235865">
        <ele>573.473</ele>
        <time>2020-08-06T13:39:46Z</time>
      </trkpt>
      <trkpt lat="41.564809" lon="1.235651">
        <ele>570.883</ele>
        <time>2020-08-06T13:40:26Z</time>
      </trkpt>
      <trkpt lat="41.564488" lon="1.235651">
        <ele>567.886</ele>
        <time>2020-08-06T13:41:06Z</time>
      </trkpt>
      <trkpt lat="41.564031" lon="1.235710">
        <ele>565.528</ele>
        <time>2020-08-06T13:41:46Z</time>
      </trkpt>
      <trkpt lat="41.563878" lon="1.235844">
        <ele>565.069</ele>
        <time>2020-08-06T13:42:26Z</time>
      </trkpt>
      <trkpt lat="41.563842" lon="1.235849">
        <ele>565.153</ele>
        <time>2020-08-06T13:43:06Z</time>
      </trkpt>
      <trkpt lat="41.563593" lon="1.235517">
        <ele>564.287</ele>
        <time>2020-08-06T13:43:46Z</time>
      </trkpt>
      <trkpt lat="41.563393" lon="1.235071">
        <ele>566.342</ele>
        <time>2020-08-06T13:44:26Z</time>
      </trkpt>
      <trkpt lat="41.563373" lon="1.235012">
        <ele>566.526</ele>
        <time>2020-08-06T13:45:06Z</time>
      </trkpt>
      <trkpt lat="41.563348" lon="1.235307">
        <ele>567.808</ele>
        <time>2020-08-06T13:45:46Z</time>
      </trkpt>
      <trkpt lat="41.563310" lon="1.235401">
        <ele>568.953</ele>
        <time>2020-08-06T13:46:26Z</time>
      </trkpt>
      <trkpt lat="41.563256" lon="1.235128">
        <ele>568.942</ele>
        <time>2020-08-06T13:47:06Z</time>
      </trkpt>
      <trkpt lat="41.563043" lon="1.235197">
        <ele>572.829</ele>
        <time>2020-08-06T13:47:46Z</time>
      </trkpt>
      <trkpt lat="41.562919" lon="1.235307">
        <ele>574.729</ele>
        <time>2020-08-06T13:48:26Z</time>
      </trkpt>
      <trkpt lat="41.562855" lon="1.234996">
        <ele>574.132</ele>
        <time>2020-08-06T13:49:06Z</time>
      </trkpt>
      <trkpt lat="41.562791" lon="1.234728">
        <ele>572.994</ele>
        <time>2020-08-06T13:49:46Z</time>
      </trkpt>
      <trkpt lat="41.562682" lon="1.234133">
        <ele>571.675</ele>
        <time>2020-08-06T13:50:26Z</time>
      </trkpt>
      <trkpt lat="41.562770" lon="1.233607">
        <ele>567.089</ele>
        <time>2020-08-06T13:51:06Z</time>
      </trkpt>
      <trkpt lat="41.562754" lon="1.232979">
        <ele>562.136</ele>
        <time>2020-08-06T13:51:46Z</time>
      </trkpt>
      <trkpt lat="41.562799" lon="1.232867">
        <ele>561.017</ele>
        <time>2020-08-06T13:52:26Z</time>
      </trkpt>
      <trkpt lat="41.562554" lon="1.232470">
        <ele>563.218</ele>
        <time>2020-08-06T13:53:06Z</time>
      </trkpt>
      <trkpt lat="41.562349" lon="1.232545">
        <ele>566.208</ele>
        <time>2020-08-06T13:53:46Z</time>
      </trkpt>
      <trkpt lat="41.562213" lon="1.232577">
        <ele>568.178</ele>
        <time>2020-08-06T13:54:26Z</time>
      </trkpt>
      <trkpt lat="41.561964" lon="1.232523">
        <ele>571.617</ele>
        <time>2020-08-06T13:55:06Z</time>
      </trkpt>
      <trkpt lat="41.561767" lon="1.232486">
        <ele>576.664</ele>
        <time>2020-08-06T13:55:46Z</time>
      </trkpt>
      <trkpt lat="41.561703" lon="1.232494">
        <ele>578.274</ele>
        <time>2020-08-06T13:56:26Z</time>
      </trkpt>
      <trkpt lat="41.561815" lon="1.232376">
        <ele>576.687</ele>
        <time>2020-08-06T13:57:06Z</time>
      </trkpt>
      <trkpt lat="41.561936" lon="1.232260">
        <ele>574.029</ele>
        <time>2020-08-06T13:57:46Z</time>
      </trkpt>
      <trkpt lat="41.561996" lon="1.232167">
        <ele>573.440</ele>
        <time>2020-08-06T13:58:26Z</time>
      </trkpt>
      <trkpt lat="41.562022" lon="1.232113">
        <ele>573.324</ele>
        <time>2020-08-06T13:59:06Z</time>
      </trkpt>
      <trkpt lat="41.561881" lon="1.232016">
        <ele>577.493</ele>
        <time>2020-08-06T13:59:46Z</time>
      </trkpt>
      <trkpt lat="41.561809" lon="1.231920">
        <ele>579.965</ele>
        <time>2020-08-06T14:00:26Z</time>
      </trkpt>
      <trkpt lat="41.561667" lon="1.231799">
        <ele>583.521</ele>
        <time>2020-08-06T14:01:06Z</time>
      </trkpt>
      <trkpt lat="41.561566" lon="1.231646">
        <ele>586.708</ele>
        <time>2020-08-06T14:01:46Z</time>
      </trkpt>
      <trkpt lat="41.561380" lon="1.231386">
        <ele>594.484</ele>
        <time>2020-08-06T14:02:26Z</time>
      </trkpt>
      <trkpt lat="41.561313" lon="1.231260">
        <ele>597.923</ele>
        <time>2020-08-06T14:03:06Z</time>
      </trkpt>
      <trkpt lat="41.561173" lon="1.230962">
        <ele>604.260</ele>
        <time>2020-08-06T14:03:46Z</time>
      </trkpt>
      <trkpt lat="41.561069" lon="1.230560">
        <ele>608.050</ele>
        <time>2020-08-06T14:04:26Z</time>
      </trkpt>
      <trkpt lat="41.560936" lon="1.230361">
        <ele>613.023</ele>
        <time>2020-08-06T14:05:06Z</time>
      </trkpt>
      <trkpt lat="41.560828" lon="1.230340">
        <ele>618.435</ele>
        <time>2020-08-06T14:05:46Z</time>
      </trkpt>
      <trkpt lat="41.560739" lon="1.230217">
        <ele>620.166</ele>
        <time>2020-08-06T14:06:26Z</time>
      </trkpt>
      <trkpt lat="41.560567" lon="1.229830">
        <ele>621.230</ele>
        <time>2020-08-06T14:07:06Z</time>
      </trkpt>
      <trkpt lat="41.560491" lon="1.229643">
        <ele>619.767</ele>
        <time>2020-08-06T14:07:46Z</time>
      </trkpt>
      <trkpt lat="41.560210" lon="1.229374">
        <ele>620.581</ele>
        <time>2020-08-06T14:08:26Z</time>
      </trkpt>
      <trkpt lat="41.560021" lon="1.229267">
        <ele>623.019</ele>
        <time>2020-08-06T14:09:06Z</time>
      </trkpt>
      <trkpt lat="41.559880" lon="1.228967">
        <ele>625.208</ele>
        <time>2020-08-06T14:09:46Z</time>
      </trkpt>
      <trkpt lat="41.559840" lon="1.228597">
        <ele>624.081</ele>
        <time>2020-08-06T14:10:26Z</time>
      </trkpt>
      <trkpt lat="41.559784" lon="1.228323">
        <ele>622.620</ele>
        <time>2020-08-06T14:11:06Z</time>
      </trkpt>
      <trkpt lat="41.559668" lon="1.228108">
        <ele>623.387</ele>
        <time>2020-08-06T14:11:46Z</time>
      </trkpt>
      <trkpt lat="41.559475" lon="1.227942">
        <ele>623.967</ele>
        <time>2020-08-06T14:12:26Z</time>
      </trkpt>
      <trkpt lat="41.559306" lon="1.227770">
        <ele>624.360</ele>
        <time>2020-08-06T14:13:06Z</time>
      </trkpt>
      <trkpt lat="41.559142" lon="1.227540">
        <ele>622.732</ele>
        <time>2020-08-06T14:13:46Z</time>
      </trkpt>
      <trkpt lat="41.559138" lon="1.227282">
        <ele>619.093</ele>
        <time>2020-08-06T14:14:26Z</time>
      </trkpt>
      <trkpt lat="41.559078" lon="1.226810">
        <ele>620.547</ele>
        <time>2020-08-06T14:15:06Z</time>
      </trkpt>
      <trkpt lat="41.559118" lon="1.226488">
        <ele>617.551</ele>
        <time>2020-08-06T14:15:46Z</time>
      </trkpt>
      <trkpt lat="41.559106" lon="1.226344">
        <ele>616.601</ele>
        <time>2020-08-06T14:16:26Z</time>
      </trkpt>
      <trkpt lat="41.558989" lon="1.225925">
        <ele>615.811</ele>
        <time>2020-08-06T14:17:06Z</time>
      </trkpt>
      <trkpt lat="41.558865" lon="1.225539">
        <ele>615.608</ele>
        <time>2020-08-06T14:17:46Z</time>
      </trkpt>
      <trkpt lat="41.558805" lon="1.225179">
        <ele>615.270</ele>
        <time>2020-08-06T14:18:26Z</time>
      </trkpt>
      <trkpt lat="41.558865" lon="1.225035">
        <ele>612.959</ele>
        <time>2020-08-06T14:19:06Z</time>
      </trkpt>
      <trkpt lat="41.558865" lon="1.224605">
        <ele>611.476</ele>
        <time>2020-08-06T14:19:46Z</time>
      </trkpt>
      <trkpt lat="41.558777" lon="1.224246">
        <ele>612.356</ele>
        <time>2020-08-06T14:20:26Z</time>
      </trkpt>
      <trkpt lat="41.558652" lon="1.223720">
        <ele>613.689</ele>
        <time>2020-08-06T14:21:06Z</time>
      </trkpt>
      <trkpt lat="41.558608" lon="1.223608">
        <ele>615.061</ele>
        <time>2020-08-06T14:21:46Z</time>
      </trkpt>
      <trkpt lat="41.558596" lon="1.223168">
        <ele>612.552</ele>
        <time>2020-08-06T14:22:26Z</time>
      </trkpt>
      <trkpt lat="41.558724" lon="1.222605">
        <ele>609.126</ele>
        <time>2020-08-06T14:23:06Z</time>
      </trkpt>
      <trkpt lat="41.558773" lon="1.222331">
        <ele>606.138</ele>
        <time>2020-08-06T14:23:46Z</time>
      </trkpt>
      <trkpt lat="41.558720" lon="1.222041">
        <ele>606.670</ele>
        <time>2020-08-06T14:24:26Z</time>
      </trkpt>
      <trkpt lat="41.558708" lon="1.221532">
        <ele>605.517</ele>
        <time>2020-08-06T14:25:06Z</time>
      </trkpt>
      <trkpt lat="41.558732" lon="1.221274">
        <ele>604.208</ele>
        <time>2020-08-06T14:25:46Z</time>
      </trkpt>
      <trkpt lat="41.558664" lon="1.220899">
        <ele>604.098</ele>
        <time>2020-08-06T14:26:26Z</time>
      </trkpt>
      <trkpt lat="41.558463" lon="1.220673">
        <ele>605.417</ele>
        <time>2020-08-06T14:27:06Z</time>
      </trkpt>
      <trkpt lat="41.558154" lon="1.220427">
        <ele>601.914</ele>
        <time>2020-08-06T14:27:46Z</time>
      </trkpt>
      <trkpt lat="41.557725" lon="1.220400">
        <ele>597.874</ele>
        <time>2020-08-06T14:28:26Z</time>
      </trkpt>
      <trkpt lat="41.557552" lon="1.220512">
        <ele>599.217</ele>
        <time>2020-08-06T14:29:06Z</time>
      </trkpt>
      <trkpt lat="41.557299" lon="1.220641">
        <ele>600.629</ele>
        <time>2020-08-06T14:29:46Z</time>
      </trkpt>
      <trkpt lat="41.557147" lon="1.220845">
        <ele>604.930</ele>
        <time>2020-08-06T14:30:26Z</time>
      </trkpt>
      <trkpt lat="41.556950" lon="1.221038">
        <ele>606.244</ele>
        <time>2020-08-06T14:31:06Z</time>
      </trkpt>
      <trkpt lat="41.556862" lon="1.221054">
        <ele>604.994</ele>
        <time>2020-08-06T14:31:46Z</time>
      </trkpt>
      <trkpt lat="41.556256" lon="1.221312">
        <ele>601.557</ele>
        <time>2020-08-06T14:32:26Z</time>
      </trkpt>
      <trkpt lat="41.556139" lon="1.221365">
        <ele>601.522</ele>
        <time>2020-08-06T14:33:06Z</time>
      </trkpt>
      <trkpt lat="41.555842" lon="1.221639">
        <ele>604.208</ele>
        <time>2020-08-06T14:33:46Z</time>
      </trkpt>
      <trkpt lat="41.555690" lon="1.221714">
        <ele>603.464</ele>
        <time>2020-08-06T14:34:26Z</time>
      </trkpt>
      <trkpt lat="41.555361" lon="1.221752">
        <ele>596.063</ele>
        <time>2020-08-06T14:35:06Z</time>
      </trkpt>
      <trkpt lat="41.555144" lon="1.221784">
        <ele>591.320</ele>
        <time>2020-08-06T14:35:46Z</time>
      </trkpt>
      <trkpt lat="41.555059" lon="1.221757">
        <ele>588.110</ele>
        <time>2020-08-06T14:36:26Z</time>
      </trkpt>
      <trkpt lat="41.554875" lon="1.221870">
        <ele>588.353</ele>
        <time>2020-08-06T14:37:06Z</time>
      </trkpt>
      <trkpt lat="41.554706" lon="1.221945">
        <ele>586.815</ele>
        <time>2020-08-06T14:37:46Z</time>
      </trkpt>
      <trkpt lat="41.554598" lon="1.222004">
        <ele>586.956</ele>
        <time>2020-08-06T14:38:26Z</time>
      </trkpt>
      <trkpt lat="41.554393" lon="1.222100">
        <ele>585.040</ele>
        <time>2020-08-06T14:39:06Z</time>
      </trkpt>
      <trkpt lat="41.554200" lon="1.222186">
        <ele>582.628</ele>
        <time>2020-08-06T14:39:46Z</time>
      </trkpt>
      <trkpt lat="41.554076" lon="1.222390">
        <ele>585.489</ele>
        <time>2020-08-06T14:40:26Z</time>
      </trkpt>
      <trkpt lat="41.553735" lon="1.222744">
        <ele>584.417</ele>
        <time>2020-08-06T14:41:06Z</time>
      </trkpt>
      <trkpt lat="41.553550" lon="1.222819">
        <ele>580.308</ele>
        <time>2020-08-06T14:41:46Z</time>
      </trkpt>
      <trkpt lat="41.553165" lon="1.223248">
        <ele>579.387</ele>
        <time>2020-08-06T14:42:26Z</time>
      </trkpt>
      <trkpt lat="41.552960" lon="1.223618">
        <ele>581.176</ele>
        <time>2020-08-06T14:43:06Z</time>
      </trkpt>
      <trkpt lat="41.552920" lon="1.223887">
        <ele>584.623</ele>
        <time>2020-08-06T14:43:46Z</time>
      </trkpt>
      <trkpt lat="41.552908" lon="1.224005">
        <ele>585.383</ele>
        <time>2020-08-06T14:44:26Z</time>
      </trkpt>
      <trkpt lat="41.553048" lon="1.224187">
        <ele>590.976</ele>
        <time>2020-08-06T14:45:06Z</time>
      </trkpt>
      <trkpt lat="41.553153" lon="1.224525">
        <ele>596.288</ele>
        <time>2020-08-06T14:45:46Z</time>
      </trkpt>
      <trkpt lat="41.553076" lon="1.224622">
        <ele>594.649</ele>
        <time>2020-08-06T14:46:26Z</time>
      </trkpt>
      <trkpt lat="41.552896" lon="1.224788">
        <ele>592.693</ele>
        <time>2020-08-06T14:47:06Z</time>
      </trkpt>
      <trkpt lat="41.552896" lon="1.224788">
        <ele>592.661</ele>
        <time>2020-08-06T14:47:46Z</time>
      </trkpt>
      <trkpt lat="41.552896" lon="1.224788">
        <ele>592.621</ele>
        <time>2020-08-06T14:48:26Z</time>
      </trkpt>
      <trkpt lat="41.552827" lon="1.224890">
        <ele>593.013</ele>
        <time>2020-08-06T14:49:06Z</time>
      </trkpt>
      <trkpt lat="41.552687" lon="1.225297">
        <ele>597.408</ele>
        <time>2020-08-06T14:49:46Z</time>
      </trkpt>
      <trkpt lat="41.552494" lon="1.225711">
        <ele>599.781</ele>
        <time>2020-08-06T14:50:26Z</time>
      </trkpt>
      <trkpt lat="41.552466" lon="1.226022">
        <ele>604.460</ele>
        <time>2020-08-06T14:51:06Z</time>
      </trkpt>
      <trkpt lat="41.552362" lon="1.226413">
        <ele>604.857</ele>
        <time>2020-08-06T14:51:46Z</time>
      </trkpt>
      <trkpt lat="41.552358" lon="1.226703">
        <ele>608.227</ele>
        <time>2020-08-06T14:52:26Z</time>
      </trkpt>
      <trkpt lat="41.552334" lon="1.226794">
        <ele>607.940</ele>
        <time>2020-08-06T14:53:06Z</time>
      </trkpt>
      <trkpt lat="41.552362" lon="1.227052">
        <ele>610.792</ele>
        <time>2020-08-06T14:53:46Z</time>
      </trkpt>
      <trkpt lat="41.552318" lon="1.227320">
        <ele>609.073</ele>
        <time>2020-08-06T14:54:26Z</time>
      </trkpt>
      <trkpt lat="41.552410" lon="1.227486">
        <ele>612.597</ele>
        <time>2020-08-06T14:55:06Z</time>
      </trkpt>
      <trkpt lat="41.552727" lon="1.227711">
        <ele>619.638</ele>
        <time>2020-08-06T14:55:46Z</time>
      </trkpt>
      <trkpt lat="41.553052" lon="1.228039">
        <ele>614.570</ele>
        <time>2020-08-06T14:56:26Z</time>
      </trkpt>
      <trkpt lat="41.553422" lon="1.228259">
        <ele>616.017</ele>
        <time>2020-08-06T14:57:06Z</time>
      </trkpt>
      <trkpt lat="41.553759" lon="1.228527">
        <ele>620.808</ele>
        <time>2020-08-06T14:57:46Z</time>
      </trkpt>
      <trkpt lat="41.553795" lon="1.228580">
        <ele>621.278</ele>
        <time>2020-08-06T14:58:26Z</time>
      </trkpt>
      <trkpt lat="41.554200" lon="1.228897">
        <ele>630.927</ele>
        <time>2020-08-06T14:59:06Z</time>
      </trkpt>
      <trkpt lat="41.554497" lon="1.229310">
        <ele>633.734</ele>
        <time>2020-08-06T14:59:46Z</time>
      </trkpt>
      <trkpt lat="41.554658" lon="1.229423">
        <ele>637.724</ele>
        <time>2020-08-06T15:00:26Z</time>
      </trkpt>
      <trkpt lat="41.554971" lon="1.229691">
        <ele>645.447</ele>
        <time>2020-08-06T15:01:06Z</time>
      </trkpt>
      <trkpt lat="41.555128" lon="1.230179">
        <ele>643.219</ele>
        <time>2020-08-06T15:01:46Z</time>
      </trkpt>
      <trkpt lat="41.555308" lon="1.230453">
        <ele>646.280</ele>
        <time>2020-08-06T15:02:26Z</time>
      </trkpt>
      <trkpt lat="41.555585" lon="1.230635">
        <ele>655.454</ele>
        <time>2020-08-06T15:03:06Z</time>
      </trkpt>
      <trkpt lat="41.555674" lon="1.230785">
        <ele>657.295</ele>
        <time>2020-08-06T15:03:46Z</time>
      </trkpt>
      <trkpt lat="41.555754" lon="1.231091">
        <ele>658.049</ele>
        <time>2020-08-06T15:04:26Z</time>
      </trkpt>
      <trkpt lat="41.555923" lon="1.231316">
        <ele>662.423</ele>
        <time>2020-08-06T15:05:06Z</time>
      </trkpt>
      <trkpt lat="41.555991" lon="1.231649">
        <ele>663.008</ele>
        <time>2020-08-06T15:05:46Z</time>
      </trkpt>
      <trkpt lat="41.556063" lon="1.231890">
        <ele>664.034</ele>
        <time>2020-08-06T15:06:26Z</time>
      </trkpt>
      <trkpt lat="41.556027" lon="1.232175">
        <ele>664.023</ele>
        <time>2020-08-06T15:07:06Z</time>
      </trkpt>
      <trkpt lat="41.556099" lon="1.232411">
        <ele>667.190</ele>
        <time>2020-08-06T15:07:46Z</time>
      </trkpt>
      <trkpt lat="41.556163" lon="1.232159">
        <ele>666.910</ele>
        <time>2020-08-06T15:08:26Z</time>
      </trkpt>
      <trkpt lat="41.556300" lon="1.232003">
        <ele>669.843</ele>
        <time>2020-08-06T15:09:06Z</time>
      </trkpt>
      <trkpt lat="41.556348" lon="1.232539">
        <ele>672.695</ele>
        <time>2020-08-06T15:09:46Z</time>
      </trkpt>
      <trkpt lat="41.556356" lon="1.232727">
        <ele>674.166</ele>
        <time>2020-08-06T15:10:26Z</time>
      </trkpt>
      <trkpt lat="41.556256" lon="1.233146">
        <ele>676.480</ele>
        <time>2020-08-06T15:11:06Z</time>
      </trkpt>
      <trkpt lat="41.556179" lon="1.233376">
        <ele>678.135</ele>
        <time>2020-08-06T15:11:46Z</time>
      </trkpt>
      <trkpt lat="41.556167" lon="1.233500">
        <ele>679.886</ele>
        <time>2020-08-06T15:12:26Z</time>
      </trkpt>
      <trkpt lat="41.556340" lon="1.233387">
        <ele>679.414</ele>
        <time>2020-08-06T15:13:06Z</time>
      </trkpt>
      <trkpt lat="41.556497" lon="1.233221">
        <ele>679.708</ele>
        <time>2020-08-06T15:13:46Z</time>
      </trkpt>
      <trkpt lat="41.556834" lon="1.233258">
        <ele>683.818</ele>
        <time>2020-08-06T15:14:26Z</time>
      </trkpt>
      <trkpt lat="41.556938" lon="1.233537">
        <ele>682.267</ele>
        <time>2020-08-06T15:15:06Z</time>
      </trkpt>
      <trkpt lat="41.556946" lon="1.233988">
        <ele>676.244</ele>
        <time>2020-08-06T15:15:46Z</time>
      </trkpt>
      <trkpt lat="41.556950" lon="1.234540">
        <ele>667.854</ele>
        <time>2020-08-06T15:16:26Z</time>
      </trkpt>
      <trkpt lat="41.557002" lon="1.234803">
        <ele>664.537</ele>
        <time>2020-08-06T15:17:06Z</time>
      </trkpt>
      <trkpt lat="41.557075" lon="1.235243">
        <ele>662.799</ele>
        <time>2020-08-06T15:17:46Z</time>
      </trkpt>
      <trkpt lat="41.557163" lon="1.235474">
        <ele>661.210</ele>
        <time>2020-08-06T15:18:26Z</time>
      </trkpt>
      <trkpt lat="41.557488" lon="1.235635">
        <ele>653.344</ele>
        <time>2020-08-06T15:19:06Z</time>
      </trkpt>
      <trkpt lat="41.557504" lon="1.236032">
        <ele>652.284</ele>
        <time>2020-08-06T15:19:46Z</time>
      </trkpt>
      <trkpt lat="41.557621" lon="1.236590">
        <ele>650.907</ele>
        <time>2020-08-06T15:20:26Z</time>
      </trkpt>
      <trkpt lat="41.557805" lon="1.236579">
        <ele>648.217</ele>
        <time>2020-08-06T15:21:06Z</time>
      </trkpt>
      <trkpt lat="41.558158" lon="1.236536">
        <ele>645.508</ele>
        <time>2020-08-06T15:21:46Z</time>
      </trkpt>
      <trkpt lat="41.558459" lon="1.236595">
        <ele>647.413</ele>
        <time>2020-08-06T15:22:26Z</time>
      </trkpt>
      <trkpt lat="41.558500" lon="1.236761">
        <ele>650.412</ele>
        <time>2020-08-06T15:23:06Z</time>
      </trkpt>
      <trkpt lat="41.558447" lon="1.236933">
        <ele>653.899</ele>
        <time>2020-08-06T15:23:46Z</time>
      </trkpt>
      <trkpt lat="41.558235" lon="1.237051">
        <ele>656.239</ele>
        <time>2020-08-06T15:24:26Z</time>
      </trkpt>
      <trkpt lat="41.558251" lon="1.237357">
        <ele>661.642</ele>
        <time>2020-08-06T15:25:06Z</time>
      </trkpt>
      <trkpt lat="41.558319" lon="1.237464">
        <ele>663.484</ele>
        <time>2020-08-06T15:25:46Z</time>
      </trkpt>
      <trkpt lat="41.558656" lon="1.237555">
        <ele>664.215</ele>
        <time>2020-08-06T15:26:26Z</time>
      </trkpt>
      <trkpt lat="41.558744" lon="1.237625">
        <ele>664.419</ele>
        <time>2020-08-06T15:27:06Z</time>
      </trkpt>
      <trkpt lat="41.558793" lon="1.237732">
        <ele>665.072</ele>
        <time>2020-08-06T15:27:46Z</time>
      </trkpt>
      <trkpt lat="41.558821" lon="1.237733">
        <ele>664.949</ele>
        <time>2020-08-04T18:09:46Z</time>
      </trkpt>
      <trkpt lat="41.558812" lon="1.237796">
        <ele>664.902</ele>
        <time>2020-08-04T18:10:01Z</time>
      </trkpt>
      <trkpt lat="41.558794" lon="1.237852">
        <ele>664.922</ele>
        <time>2020-08-04T18:10:10Z</time>
      </trkpt>
      <trkpt lat="41.558780" lon="1.237910">
        <ele>664.908</ele>
        <time>2020-08-04T18:10:16Z</time>
      </trkpt>
      <trkpt lat="41.558759" lon="1.237968">
        <ele>664.989</ele>
        <time>2020-08-04T18:10:21Z</time>
      </trkpt>
      <trkpt lat="41.558730" lon="1.238034">
        <ele>664.928</ele>
        <time>2020-08-04T18:10:25Z</time>
      </trkpt>
      <trkpt lat="41.558721" lon="1.238101">
        <ele>664.964</ele>
        <time>2020-08-04T18:10:29Z</time>
      </trkpt>
      <trkpt lat="41.558714" lon="1.238166">
        <ele>664.944</ele>
        <time>2020-08-04T18:10:32Z</time>
      </trkpt>
      <trkpt lat="41.558708" lon="1.238226">
        <ele>664.920</ele>
        <time>2020-08-04T18:10:35Z</time>
      </trkpt>
      <trkpt lat="41.558701" lon="1.238290">
        <ele>664.935</ele>
        <time>2020-08-04T18:10:37Z</time>
      </trkpt>
      <trkpt lat="41.558687" lon="1.238359">
        <ele>664.972</ele>
        <time>2020-08-04T18:10:41Z</time>
      </trkpt>
      <trkpt lat="41.558678" lon="1.238434">
        <ele>664.955</ele>
        <time>2020-08-04T18:10:45Z</time>
      </trkpt>
      <trkpt lat="41.558675" lon="1.238496">
        <ele>664.979</ele>
        <time>2020-08-04T18:10:50Z</time>
      </trkpt>
      <trkpt lat="41.558681" lon="1.238560">
        <ele>664.905</ele>
        <time>2020-08-04T18:10:53Z</time>
      </trkpt>
      <trkpt lat="41.558651" lon="1.238635">
        <ele>664.925</ele>
        <time>2020-08-04T18:10:57Z</time>
      </trkpt>
      <trkpt lat="41.558625" lon="1.238692">
        <ele>665.308</ele>
        <time>2020-08-04T18:11:01Z</time>
      </trkpt>
      <trkpt lat="41.558622" lon="1.238765">
        <ele>665.812</ele>
        <time>2020-08-04T18:11:05Z</time>
      </trkpt>
      <trkpt lat="41.558614" lon="1.238826">
        <ele>665.821</ele>
        <time>2020-08-04T18:11:11Z</time>
      </trkpt>
      <trkpt lat="41.558608" lon="1.238902">
        <ele>666.427</ele>
        <time>2020-08-04T18:11:15Z</time>
      </trkpt>
      <trkpt lat="41.558591" lon="1.238967">
        <ele>667.547</ele>
        <time>2020-08-04T18:11:19Z</time>
      </trkpt>
      <trkpt lat="41.558579" lon="1.239035">
        <ele>668.283</ele>
        <time>2020-08-04T18:11:24Z</time>
      </trkpt>
      <trkpt lat="41.558570" lon="1.239102">
        <ele>668.878</ele>
        <time>2020-08-04T18:11:28Z</time>
      </trkpt>
      <trkpt lat="41.558563" lon="1.239168">
        <ele>669.035</ele>
        <time>2020-08-04T18:11:33Z</time>
      </trkpt>
      <trkpt lat="41.558545" lon="1.239238">
        <ele>669.528</ele>
        <time>2020-08-04T18:11:38Z</time>
      </trkpt>
      <trkpt lat="41.558536" lon="1.239307">
        <ele>669.069</ele>
        <time>2020-08-04T18:11:43Z</time>
      </trkpt>
      <trkpt lat="41.558535" lon="1.239369">
        <ele>669.304</ele>
        <time>2020-08-04T18:11:47Z</time>
      </trkpt>
      <trkpt lat="41.558525" lon="1.239430">
        <ele>669.724</ele>
        <time>2020-08-04T18:11:51Z</time>
      </trkpt>
      <trkpt lat="41.558505" lon="1.239492">
        <ele>670.008</ele>
        <time>2020-08-04T18:11:55Z</time>
      </trkpt>
      <trkpt lat="41.558493" lon="1.239555">
        <ele>670.261</ele>
        <time>2020-08-04T18:11:58Z</time>
      </trkpt>
      <trkpt lat="41.558481" lon="1.239622">
        <ele>669.860</ele>
        <time>2020-08-04T18:12:02Z</time>
      </trkpt>
      <trkpt lat="41.558493" lon="1.239692">
        <ele>668.836</ele>
        <time>2020-08-04T18:12:06Z</time>
      </trkpt>
      <trkpt lat="41.558502" lon="1.239762">
        <ele>668.256</ele>
        <time>2020-08-04T18:12:10Z</time>
      </trkpt>
      <trkpt lat="41.558508" lon="1.239834">
        <ele>668.322</ele>
        <time>2020-08-04T18:12:15Z</time>
      </trkpt>
      <trkpt lat="41.558512" lon="1.239897">
        <ele>668.527</ele>
        <time>2020-08-04T18:12:18Z</time>
      </trkpt>
      <trkpt lat="41.558512" lon="1.239963">
        <ele>668.074</ele>
        <time>2020-08-04T18:12:22Z</time>
      </trkpt>
      <trkpt lat="41.558524" lon="1.240058">
        <ele>667.317</ele>
        <time>2020-08-04T18:12:26Z</time>
      </trkpt>
      <trkpt lat="41.558527" lon="1.240144">
        <ele>667.474</ele>
        <time>2020-08-04T18:12:29Z</time>
      </trkpt>
      <trkpt lat="41.558537" lon="1.240220">
        <ele>667.156</ele>
        <time>2020-08-04T18:12:32Z</time>
      </trkpt>
      <trkpt lat="41.558553" lon="1.240292">
        <ele>666.821</ele>
        <time>2020-08-04T18:12:36Z</time>
      </trkpt>
      <trkpt lat="41.558568" lon="1.240351">
        <ele>666.708</ele>
        <time>2020-08-04T18:12:39Z</time>
      </trkpt>
      <trkpt lat="41.558598" lon="1.240400">
        <ele>666.782</ele>
        <time>2020-08-04T18:12:43Z</time>
      </trkpt>
      <trkpt lat="41.558651" lon="1.240453">
        <ele>666.231</ele>
        <time>2020-08-04T18:12:47Z</time>
      </trkpt>
      <trkpt lat="41.558690" lon="1.240492">
        <ele>665.817</ele>
        <time>2020-08-04T18:12:51Z</time>
      </trkpt>
      <trkpt lat="41.558732" lon="1.240515">
        <ele>665.587</ele>
        <time>2020-08-04T18:12:54Z</time>
      </trkpt>
      <trkpt lat="41.558783" lon="1.240530">
        <ele>664.633</ele>
        <time>2020-08-04T18:12:58Z</time>
      </trkpt>
      <trkpt lat="41.558829" lon="1.240543">
        <ele>664.548</ele>
        <time>2020-08-04T18:13:01Z</time>
      </trkpt>
      <trkpt lat="41.558878" lon="1.240568">
        <ele>664.585</ele>
        <time>2020-08-04T18:13:04Z</time>
      </trkpt>
      <trkpt lat="41.558923" lon="1.240585">
        <ele>664.598</ele>
        <time>2020-08-04T18:13:07Z</time>
      </trkpt>
      <trkpt lat="41.558943" lon="1.240639">
        <ele>664.548</ele>
        <time>2020-08-04T18:13:27Z</time>
      </trkpt>
      <trkpt lat="41.558985" lon="1.240673">
        <ele>664.561</ele>
        <time>2020-08-04T18:14:36Z</time>
      </trkpt>
      <trkpt lat="41.559029" lon="1.240690">
        <ele>664.517</ele>
        <time>2020-08-04T18:14:41Z</time>
      </trkpt>
      <trkpt lat="41.559077" lon="1.240705">
        <ele>664.508</ele>
        <time>2020-08-04T18:14:46Z</time>
      </trkpt>
      <trkpt lat="41.559120" lon="1.240732">
        <ele>664.579</ele>
        <time>2020-08-04T18:14:50Z</time>
      </trkpt>
      <trkpt lat="41.559169" lon="1.240762">
        <ele>664.528</ele>
        <time>2020-08-04T18:14:55Z</time>
      </trkpt>
      <trkpt lat="41.559217" lon="1.240781">
        <ele>664.534</ele>
        <time>2020-08-04T18:15:00Z</time>
      </trkpt>
      <trkpt lat="41.559270" lon="1.240779">
        <ele>664.574</ele>
        <time>2020-08-04T18:15:04Z</time>
      </trkpt>
      <trkpt lat="41.559316" lon="1.240790">
        <ele>664.550</ele>
        <time>2020-08-04T18:15:08Z</time>
      </trkpt>
      <trkpt lat="41.559363" lon="1.240820">
        <ele>664.555</ele>
        <time>2020-08-04T18:15:12Z</time>
      </trkpt>
      <trkpt lat="41.559411" lon="1.240847">
        <ele>664.572</ele>
        <time>2020-08-04T18:15:16Z</time>
      </trkpt>
      <trkpt lat="41.559457" lon="1.240880">
        <ele>664.535</ele>
        <time>2020-08-04T18:15:20Z</time>
      </trkpt>
      <trkpt lat="41.559499" lon="1.240904">
        <ele>664.571</ele>
        <time>2020-08-04T18:15:25Z</time>
      </trkpt>
      <trkpt lat="41.559544" lon="1.240918">
        <ele>664.541</ele>
        <time>2020-08-04T18:15:29Z</time>
      </trkpt>
      <trkpt lat="41.559587" lon="1.240944">
        <ele>664.515</ele>
        <time>2020-08-04T18:15:34Z</time>
      </trkpt>
      <trkpt lat="41.559637" lon="1.240952">
        <ele>664.508</ele>
        <time>2020-08-04T18:15:38Z</time>
      </trkpt>
      <trkpt lat="41.559686" lon="1.240959">
        <ele>664.562</ele>
        <time>2020-08-04T18:15:42Z</time>
      </trkpt>
      <trkpt lat="41.559733" lon="1.240961">
        <ele>664.541</ele>
        <time>2020-08-04T18:15:47Z</time>
      </trkpt>
      <trkpt lat="41.559768" lon="1.241008">
        <ele>664.537</ele>
        <time>2020-08-04T18:15:52Z</time>
      </trkpt>
      <trkpt lat="41.559801" lon="1.241053">
        <ele>664.587</ele>
        <time>2020-08-04T18:15:57Z</time>
      </trkpt>
      <trkpt lat="41.559847" lon="1.241043">
        <ele>664.573</ele>
        <time>2020-08-04T18:16:04Z</time>
      </trkpt>
      <trkpt lat="41.559894" lon="1.241048">
        <ele>664.528</ele>
        <time>2020-08-04T18:16:10Z</time>
      </trkpt>
      <trkpt lat="41.559941" lon="1.241030">
        <ele>664.515</ele>
        <time>2020-08-04T18:16:16Z</time>
      </trkpt>
      <trkpt lat="41.559959" lon="1.240970">
        <ele>664.568</ele>
        <time>2020-08-04T18:16:21Z</time>
      </trkpt>
      <trkpt lat="41.560008" lon="1.240979">
        <ele>664.522</ele>
        <time>2020-08-04T18:16:29Z</time>
      </trkpt>
      <trkpt lat="41.559974" lon="1.241019">
        <ele>664.562</ele>
        <time>2020-08-04T18:17:29Z</time>
      </trkpt>
      <trkpt lat="41.560013" lon="1.241057">
        <ele>664.508</ele>
        <time>2020-08-04T18:17:42Z</time>
      </trkpt>
      <trkpt lat="41.560038" lon="1.241112">
        <ele>664.508</ele>
        <time>2020-08-04T18:17:48Z</time>
      </trkpt>
      <trkpt lat="41.560069" lon="1.241157">
        <ele>664.517</ele>
        <time>2020-08-04T18:17:57Z</time>
      </trkpt>
      <trkpt lat="41.560071" lon="1.241218">
        <ele>664.536</ele>
        <time>2020-08-04T18:18:03Z</time>
      </trkpt>
      <trkpt lat="41.560064" lon="1.241280">
        <ele>664.572</ele>
        <time>2020-08-04T18:18:08Z</time>
      </trkpt>
      <trkpt lat="41.560057" lon="1.241344">
        <ele>664.542</ele>
        <time>2020-08-04T18:18:13Z</time>
      </trkpt>
      <trkpt lat="41.560064" lon="1.241411">
        <ele>664.548</ele>
        <time>2020-08-04T18:18:18Z</time>
      </trkpt>
      <trkpt lat="41.560084" lon="1.241475">
        <ele>664.523</ele>
        <time>2020-08-04T18:18:22Z</time>
      </trkpt>
      <trkpt lat="41.560096" lon="1.241544">
        <ele>664.510</ele>
        <time>2020-08-04T18:18:26Z</time>
      </trkpt>
      <trkpt lat="41.560095" lon="1.241613">
        <ele>664.583</ele>
        <time>2020-08-04T18:18:30Z</time>
      </trkpt>
      <trkpt lat="41.560100" lon="1.241680">
        <ele>664.568</ele>
        <time>2020-08-04T18:18:34Z</time>
      </trkpt>
      <trkpt lat="41.560115" lon="1.241750">
        <ele>664.542</ele>
        <time>2020-08-04T18:18:37Z</time>
      </trkpt>
      <trkpt lat="41.560128" lon="1.241809">
        <ele>664.526</ele>
        <time>2020-08-04T18:18:40Z</time>
      </trkpt>
      <trkpt lat="41.560142" lon="1.241869">
        <ele>664.508</ele>
        <time>2020-08-04T18:18:45Z</time>
      </trkpt>
      <trkpt lat="41.560153" lon="1.241938">
        <ele>664.591</ele>
        <time>2020-08-04T18:18:49Z</time>
      </trkpt>
      <trkpt lat="41.560159" lon="1.242000">
        <ele>664.520</ele>
        <time>2020-08-04T18:18:52Z</time>
      </trkpt>
      <trkpt lat="41.560170" lon="1.242065">
        <ele>664.556</ele>
        <time>2020-08-04T18:18:55Z</time>
      </trkpt>
      <trkpt lat="41.560187" lon="1.242127">
        <ele>664.576</ele>
        <time>2020-08-04T18:18:59Z</time>
      </trkpt>
      <trkpt lat="41.560202" lon="1.242191">
        <ele>664.532</ele>
        <time>2020-08-04T18:19:03Z</time>
      </trkpt>
      <trkpt lat="41.560217" lon="1.242251">
        <ele>664.577</ele>
        <time>2020-08-04T18:19:07Z</time>
      </trkpt>
      <trkpt lat="41.560232" lon="1.242309">
        <ele>664.514</ele>
        <time>2020-08-04T18:19:11Z</time>
      </trkpt>
      <trkpt lat="41.560239" lon="1.242384">
        <ele>664.567</ele>
        <time>2020-08-04T18:19:16Z</time>
      </trkpt>
      <trkpt lat="41.560243" lon="1.242455">
        <ele>664.575</ele>
        <time>2020-08-04T18:19:20Z</time>
      </trkpt>
      <trkpt lat="41.560245" lon="1.242517">
        <ele>664.528</ele>
        <time>2020-08-04T18:19:24Z</time>
      </trkpt>
      <trkpt lat="41.560242" lon="1.242579">
        <ele>664.520</ele>
        <time>2020-08-04T18:19:28Z</time>
      </trkpt>
      <trkpt lat="41.560241" lon="1.242657">
        <ele>664.508</ele>
        <time>2020-08-04T18:19:32Z</time>
      </trkpt>
      <trkpt lat="41.560249" lon="1.242721">
        <ele>664.552</ele>
        <time>2020-08-04T18:19:36Z</time>
      </trkpt>
      <trkpt lat="41.560262" lon="1.242789">
        <ele>664.581</ele>
        <time>2020-08-04T18:19:40Z</time>
      </trkpt>
      <trkpt lat="41.560276" lon="1.242848">
        <ele>664.537</ele>
        <time>2020-08-04T18:19:44Z</time>
      </trkpt>
      <trkpt lat="41.560295" lon="1.242904">
        <ele>664.527</ele>
        <time>2020-08-04T18:19:48Z</time>
      </trkpt>
      <trkpt lat="41.560318" lon="1.242960">
        <ele>664.533</ele>
        <time>2020-08-04T18:19:51Z</time>
      </trkpt>
      <trkpt lat="41.560346" lon="1.243035">
        <ele>664.538</ele>
        <time>2020-08-04T18:19:55Z</time>
      </trkpt>
      <trkpt lat="41.560363" lon="1.243091">
        <ele>664.535</ele>
        <time>2020-08-04T18:19:58Z</time>
      </trkpt>
      <trkpt lat="41.560376" lon="1.243157">
        <ele>664.548</ele>
        <time>2020-08-04T18:20:01Z</time>
      </trkpt>
      <trkpt lat="41.560386" lon="1.243217">
        <ele>664.529</ele>
        <time>2020-08-04T18:20:04Z</time>
      </trkpt>
      <trkpt lat="41.560399" lon="1.243293">
        <ele>664.500</ele>
        <time>2020-08-04T18:20:07Z</time>
      </trkpt>
      <trkpt lat="41.560409" lon="1.243369">
        <ele>664.520</ele>
        <time>2020-08-04T18:20:11Z</time>
      </trkpt>
      <trkpt lat="41.560419" lon="1.243436">
        <ele>664.508</ele>
        <time>2020-08-04T18:20:14Z</time>
      </trkpt>
      <trkpt lat="41.560429" lon="1.243503">
        <ele>664.537</ele>
        <time>2020-08-04T18:20:17Z</time>
      </trkpt>
      <trkpt lat="41.560437" lon="1.243567">
        <ele>664.526</ele>
        <time>2020-08-04T18:20:20Z</time>
      </trkpt>
      <trkpt lat="41.560447" lon="1.243644">
        <ele>664.522</ele>
        <time>2020-08-04T18:20:23Z</time>
      </trkpt>
      <trkpt lat="41.560456" lon="1.243708">
        <ele>664.592</ele>
        <time>2020-08-04T18:20:26Z</time>
      </trkpt>
      <trkpt lat="41.560463" lon="1.243775">
        <ele>664.598</ele>
        <time>2020-08-04T18:20:30Z</time>
      </trkpt>
      <trkpt lat="41.560466" lon="1.243853">
        <ele>664.583</ele>
        <time>2020-08-04T18:20:33Z</time>
      </trkpt>
      <trkpt lat="41.560469" lon="1.243925">
        <ele>664.540</ele>
        <time>2020-08-04T18:20:35Z</time>
      </trkpt>
      <trkpt lat="41.560474" lon="1.244001">
        <ele>664.543</ele>
        <time>2020-08-04T18:20:38Z</time>
      </trkpt>
      <trkpt lat="41.560474" lon="1.244078">
        <ele>664.531</ele>
        <time>2020-08-04T18:20:41Z</time>
      </trkpt>
      <trkpt lat="41.560470" lon="1.244148">
        <ele>664.561</ele>
        <time>2020-08-04T18:20:45Z</time>
      </trkpt>
      <trkpt lat="41.560462" lon="1.244221">
        <ele>664.507</ele>
        <time>2020-08-04T18:20:49Z</time>
      </trkpt>
      <trkpt lat="41.560452" lon="1.244287">
        <ele>664.508</ele>
        <time>2020-08-04T18:20:52Z</time>
      </trkpt>
      <trkpt lat="41.560445" lon="1.244348">
        <ele>664.538</ele>
        <time>2020-08-04T18:20:55Z</time>
      </trkpt>
      <trkpt lat="41.560437" lon="1.244423">
        <ele>664.517</ele>
        <time>2020-08-04T18:20:59Z</time>
      </trkpt>
      <trkpt lat="41.560422" lon="1.244484">
        <ele>664.583</ele>
        <time>2020-08-04T18:21:02Z</time>
      </trkpt>
      <trkpt lat="41.560409" lon="1.244543">
        <ele>664.513</ele>
        <time>2020-08-04T18:21:05Z</time>
      </trkpt>
      <trkpt lat="41.560393" lon="1.244619">
        <ele>664.539</ele>
        <time>2020-08-04T18:21:08Z</time>
      </trkpt>
      <trkpt lat="41.560379" lon="1.244688">
        <ele>664.594</ele>
        <time>2020-08-04T18:21:11Z</time>
      </trkpt>
      <trkpt lat="41.560365" lon="1.244753">
        <ele>664.521</ele>
        <time>2020-08-04T18:21:15Z</time>
      </trkpt>
      <trkpt lat="41.560349" lon="1.244813">
        <ele>664.554</ele>
        <time>2020-08-04T18:21:18Z</time>
      </trkpt>
      <trkpt lat="41.560327" lon="1.244888">
        <ele>664.538</ele>
        <time>2020-08-04T18:21:21Z</time>
      </trkpt>
      <trkpt lat="41.560298" lon="1.244943">
        <ele>664.570</ele>
        <time>2020-08-04T18:21:26Z</time>
      </trkpt>
      <trkpt lat="41.560262" lon="1.244998">
        <ele>664.517</ele>
        <time>2020-08-04T18:21:30Z</time>
      </trkpt>
      <trkpt lat="41.560226" lon="1.245052">
        <ele>664.508</ele>
        <time>2020-08-04T18:21:34Z</time>
      </trkpt>
      <trkpt lat="41.560185" lon="1.245105">
        <ele>664.588</ele>
        <time>2020-08-04T18:21:38Z</time>
      </trkpt>
      <trkpt lat="41.560143" lon="1.245157">
        <ele>664.557</ele>
        <time>2020-08-04T18:21:41Z</time>
      </trkpt>
      <trkpt lat="41.560107" lon="1.245202">
        <ele>664.513</ele>
        <time>2020-08-04T18:21:45Z</time>
      </trkpt>
      <trkpt lat="41.560076" lon="1.245253">
        <ele>664.513</ele>
        <time>2020-08-04T18:21:50Z</time>
      </trkpt>
      <trkpt lat="41.560085" lon="1.245313">
        <ele>664.579</ele>
        <time>2020-08-04T18:21:54Z</time>
      </trkpt>
      <trkpt lat="41.560128" lon="1.245344">
        <ele>664.544</ele>
        <time>2020-08-04T18:23:07Z</time>
      </trkpt>
      <trkpt lat="41.560314" lon="1.245022">
        <ele>675.198</ele>
        <time>2020-08-06T14:10:54Z</time>
      </trkpt>
      <trkpt lat="41.560483" lon="1.244427">
        <ele>668.215</ele>
        <time>2020-08-06T14:11:34Z</time>
      </trkpt>
      <trkpt lat="41.560587" lon="1.243713">
        <ele>664.226</ele>
        <time>2020-08-06T14:12:14Z</time>
      </trkpt>
      <trkpt lat="41.560615" lon="1.243418">
        <ele>661.308</ele>
        <time>2020-08-06T14:12:54Z</time>
      </trkpt>
      <trkpt lat="41.560659" lon="1.243306">
        <ele>658.684</ele>
        <time>2020-08-06T14:13:34Z</time>
      </trkpt>
      <trkpt lat="41.560627" lon="1.243097">
        <ele>660.543</ele>
        <time>2020-08-06T14:14:14Z</time>
      </trkpt>
      <trkpt lat="41.560695" lon="1.242775">
        <ele>658.510</ele>
        <time>2020-08-06T14:14:54Z</time>
      </trkpt>
      <trkpt lat="41.560747" lon="1.242560">
        <ele>656.270</ele>
        <time>2020-08-06T14:15:34Z</time>
      </trkpt>
      <trkpt lat="41.560832" lon="1.242061">
        <ele>646.616</ele>
        <time>2020-08-06T14:16:14Z</time>
      </trkpt>
      <trkpt lat="41.560804" lon="1.241841">
        <ele>644.630</ele>
        <time>2020-08-06T14:16:54Z</time>
      </trkpt>
      <trkpt lat="41.560904" lon="1.241718">
        <ele>638.967</ele>
        <time>2020-08-06T14:17:34Z</time>
      </trkpt>
      <trkpt lat="41.561044" lon="1.241884">
        <ele>634.135</ele>
        <time>2020-08-06T14:18:14Z</time>
      </trkpt>
      <trkpt lat="41.561145" lon="1.241788">
        <ele>627.821</ele>
        <time>2020-08-06T14:18:54Z</time>
      </trkpt>
      <trkpt lat="41.561261" lon="1.241353">
        <ele>622.241</ele>
        <time>2020-08-06T14:19:34Z</time>
      </trkpt>
      <trkpt lat="41.561342" lon="1.241235">
        <ele>618.805</ele>
        <time>2020-08-06T14:20:14Z</time>
      </trkpt>
      <trkpt lat="41.561386" lon="1.240919">
        <ele>615.808</ele>
        <time>2020-08-06T14:20:54Z</time>
      </trkpt>
      <trkpt lat="41.561342" lon="1.240688">
        <ele>618.097</ele>
        <time>2020-08-06T14:21:34Z</time>
      </trkpt>
      <trkpt lat="41.561386" lon="1.240430">
        <ele>617.426</ele>
        <time>2020-08-06T14:22:14Z</time>
      </trkpt>
      <trkpt lat="41.561442" lon="1.240162">
        <ele>618.723</ele>
        <time>2020-08-06T14:22:54Z</time>
      </trkpt>
      <trkpt lat="41.561562" lon="1.239674">
        <ele>615.593</ele>
        <time>2020-08-06T14:23:34Z</time>
      </trkpt>
      <trkpt lat="41.561687" lon="1.239320">
        <ele>608.289</ele>
        <time>2020-08-06T14:24:14Z</time>
      </trkpt>
      <trkpt lat="41.561783" lon="1.239004">
        <ele>605.323</ele>
        <time>2020-08-06T14:24:54Z</time>
      </trkpt>
      <trkpt lat="41.561867" lon="1.238784">
        <ele>603.320</ele>
        <time>2020-08-06T14:25:34Z</time>
      </trkpt>
      <trkpt lat="41.561948" lon="1.238671">
        <ele>601.228</ele>
        <time>2020-08-06T14:26:14Z</time>
      </trkpt>
      <trkpt lat="41.562080" lon="1.238274">
        <ele>596.641</ele>
        <time>2020-08-06T14:26:54Z</time>
      </trkpt>
      <trkpt lat="41.562245" lon="1.237990">
        <ele>590.581</ele>
        <time>2020-08-06T14:27:34Z</time>
      </trkpt>
      <trkpt lat="41.562461" lon="1.237646">
        <ele>581.709</ele>
        <time>2020-08-06T14:28:14Z</time>
      </trkpt>
      <trkpt lat="41.562526" lon="1.237496">
        <ele>580.708</ele>
        <time>2020-08-06T14:28:54Z</time>
      </trkpt>
      <trkpt lat="41.564067" lon="1.237915">
        <ele>565.967</ele>
        <time>2020-08-06T11:53:00Z</time>
      </trkpt>
      <trkpt lat="41.563926" lon="1.237831">
        <ele>564.381</ele>
        <time>2020-08-06T11:53:40Z</time>
      </trkpt>
      <trkpt lat="41.563712" lon="1.237756">
        <ele>566.119</ele>
        <time>2020-08-06T11:54:20Z</time>
      </trkpt>
      <trkpt lat="41.563459" lon="1.237625">
        <ele>570.508</ele>
        <time>2020-08-06T11:55:00Z</time>
      </trkpt>
      <trkpt lat="41.563164" lon="1.237534">
        <ele>573.491</ele>
        <time>2020-08-06T11:55:40Z</time>
      </trkpt>
      <trkpt lat="41.562943" lon="1.237410">
        <ele>576.310</ele>
        <time>2020-08-06T11:56:20Z</time>
      </trkpt>
      <trkpt lat="41.562660" lon="1.237212">
        <ele>580.377</ele>
        <time>2020-08-06T11:57:00Z</time>
      </trkpt>
      <trkpt lat="41.562640" lon="1.237188">
        <ele>580.756</ele>
        <time>2020-08-06T11:57:40Z</time>
      </trkpt>
      <trkpt lat="41.562496" lon="1.237695">
        <ele>580.492</ele>
        <time>2020-08-06T11:58:20Z</time>
      </trkpt>
    </trkseg>
  </trk>
</gpx>
